sensor_id;sensor_type;location;lat;lon;timestamp;pressure;altitude;pressure_sealevel;temperature;humidity
63351;BME280;64988;51.058;17.040;2023-04-01T00:05:26;98300.78;;;13.79;59.72
63351;BME280;64988;51.058;17.040;2023-04-01T00:10:54;98305.53;;;13.91;59.64
63351;BME280;64988;51.058;17.040;2023-04-01T00:16:22;98313.84;;;14.04;59.28
63351;BME280;64988;51.058;17.040;2023-04-01T00:21:49;98304.53;;;14.13;59.31
63351;BME280;64988;51.058;17.040;2023-04-01T00:27:16;98300.66;;;14.01;58.87
63351;BME280;64988;51.058;17.040;2023-04-01T00:32:43;98300.81;;;14.00;58.77
63351;BME280;64988;51.058;17.040;2023-04-01T00:38:12;98296.97;;;14.09;58.80
63351;BME280;64988;51.058;17.040;2023-04-01T00:43:41;98289.03;;;14.07;58.37
63351;BME280;64988;51.058;17.040;2023-04-01T00:49:09;98294.00;;;14.04;58.88
63351;BME280;64988;51.058;17.040;2023-04-01T00:54:37;98300.59;;;14.16;58.65
63351;BME280;64988;51.058;17.040;2023-04-01T01:00:10;98298.47;;;14.33;58.63
63351;BME280;64988;51.058;17.040;2023-04-01T01:06:37;98298.19;;;14.42;58.39
63351;BME280;64988;51.058;17.040;2023-04-01T01:12:19;98301.53;;;14.44;58.24
63351;BME280;64988;51.058;17.040;2023-04-01T01:35:55;98293.53;;;14.57;58.16
63351;BME280;64988;51.058;17.040;2023-04-01T01:41:26;98297.09;;;14.58;58.17
63351;BME280;64988;51.058;17.040;2023-04-01T01:46:56;98293.53;;;14.57;58.52
63351;BME280;64988;51.058;17.040;2023-04-01T01:52:24;98299.22;;;14.62;57.79
63351;BME280;64988;51.058;17.040;2023-04-01T01:58:01;98291.53;;;14.66;58.30
63351;BME280;64988;51.058;17.040;2023-04-01T02:03:34;98292.84;;;14.70;57.96
63351;BME280;64988;51.058;17.040;2023-04-01T02:09:05;98288.88;;;14.73;57.68
63351;BME280;64988;51.058;17.040;2023-04-01T02:14:57;98285.59;;;14.84;57.23
63351;BME280;64988;51.058;17.040;2023-04-01T02:20:28;98282.09;;;14.90;57.67
63351;BME280;64988;51.058;17.040;2023-04-01T02:25:57;98283.00;;;14.97;57.92
63351;BME280;64988;51.058;17.040;2023-04-01T02:31:25;98273.25;;;15.02;57.70
63351;BME280;64988;51.058;17.040;2023-04-01T02:36:53;98277.47;;;15.11;57.86
63351;BME280;64988;51.058;17.040;2023-04-01T02:42:22;98276.47;;;15.19;57.29
63351;BME280;64988;51.058;17.040;2023-04-01T02:47:50;98272.72;;;15.20;57.04
63351;BME280;64988;51.058;17.040;2023-04-01T02:53:18;98284.84;;;15.17;57.04
63351;BME280;64988;51.058;17.040;2023-04-01T02:58:48;98283.19;;;15.23;56.72
63351;BME280;64988;51.058;17.040;2023-04-01T03:04:15;98286.78;;;15.30;56.58
63351;BME280;64988;51.058;17.040;2023-04-01T03:09:43;98290.97;;;15.33;56.32
63351;BME280;64988;51.058;17.040;2023-04-01T03:15:12;98305.22;;;15.35;56.81
63351;BME280;64988;51.058;17.040;2023-04-01T03:20:40;98296.47;;;15.39;56.61
63351;BME280;64988;51.058;17.040;2023-04-01T03:26:07;98298.16;;;15.40;56.34
63351;BME280;64988;51.058;17.040;2023-04-01T03:31:35;98301.28;;;15.37;56.37
63351;BME280;64988;51.058;17.040;2023-04-01T03:37:03;98305.81;;;15.30;56.49
63351;BME280;64988;51.058;17.040;2023-04-01T03:42:31;98304.53;;;15.26;57.29
63351;BME280;64988;51.058;17.040;2023-04-01T03:47:59;98299.09;;;15.26;57.24
63351;BME280;64988;51.058;17.040;2023-04-01T03:53:26;98311.97;;;15.11;57.85
63351;BME280;64988;51.058;17.040;2023-04-01T03:58:58;98318.47;;;15.16;57.90
63351;BME280;64988;51.058;17.040;2023-04-01T04:04:26;98319.09;;;15.12;58.14
63351;BME280;64988;51.058;17.040;2023-04-01T04:09:54;98327.94;;;14.99;58.53
63351;BME280;64988;51.058;17.040;2023-04-01T04:15:23;98324.34;;;14.92;58.79
63351;BME280;64988;51.058;17.040;2023-04-01T04:20:53;98331.22;;;14.88;59.30
63351;BME280;64988;51.058;17.040;2023-04-01T04:26:21;98330.81;;;14.91;59.23
63351;BME280;64988;51.058;17.040;2023-04-01T04:31:58;98340.38;;;14.87;59.59
63351;BME280;64988;51.058;17.040;2023-04-01T04:37:26;98332.63;;;14.84;60.02
63351;BME280;64988;51.058;17.040;2023-04-01T04:42:54;98333.16;;;14.73;60.42
63351;BME280;64988;51.058;17.040;2023-04-01T04:48:25;98337.53;;;14.74;60.56
63351;BME280;64988;51.058;17.040;2023-04-01T04:53:52;98332.13;;;14.74;60.95
63351;BME280;64988;51.058;17.040;2023-04-01T04:59:28;98341.44;;;14.86;60.63
63351;BME280;64988;51.058;17.040;2023-04-01T05:05:07;98349.38;;;14.88;60.23
63351;BME280;64988;51.058;17.040;2023-04-01T05:10:34;98351.47;;;14.86;60.15
63351;BME280;64988;51.058;17.040;2023-04-01T05:16:02;98353.28;;;14.79;60.73
63351;BME280;64988;51.058;17.040;2023-04-01T05:21:31;98342.97;;;14.74;61.07
63351;BME280;64988;51.058;17.040;2023-04-01T05:26:58;98341.09;;;14.75;60.94
63351;BME280;64988;51.058;17.040;2023-04-01T05:32:26;98349.88;;;14.77;61.15
63351;BME280;64988;51.058;17.040;2023-04-01T05:37:53;98346.22;;;14.84;61.42
63351;BME280;64988;51.058;17.040;2023-04-01T05:43:21;98345.09;;;15.00;60.50
63351;BME280;64988;51.058;17.040;2023-04-01T05:48:49;98348.31;;;15.10;60.86
63351;BME280;64988;51.058;17.040;2023-04-01T05:54:18;98348.56;;;15.15;60.52
63351;BME280;64988;51.058;17.040;2023-04-01T05:59:45;98343.28;;;15.35;59.75
63351;BME280;64988;51.058;17.040;2023-04-01T06:05:24;98353.28;;;15.55;59.96
63351;BME280;64988;51.058;17.040;2023-04-01T06:23:26;98370.78;;;15.81;59.22
63351;BME280;64988;51.058;17.040;2023-04-01T06:46:54;98380.41;;;16.78;56.93
63351;BME280;64988;51.058;17.040;2023-04-01T06:58:59;98374.13;;;17.04;56.04
63351;BME280;64988;51.058;17.040;2023-04-01T07:04:35;98389.66;;;17.23;55.98
63351;BME280;64988;51.058;17.040;2023-04-01T07:10:12;98387.78;;;17.50;55.16
63351;BME280;64988;51.058;17.040;2023-04-01T07:16:27;98381.50;;;17.56;55.00
63351;BME280;64988;51.058;17.040;2023-04-01T07:22:03;98389.88;;;17.67;54.37
63351;BME280;64988;51.058;17.040;2023-04-01T07:28:00;98399.91;;;17.93;54.16
63351;BME280;64988;51.058;17.040;2023-04-01T07:33:46;98400.94;;;17.99;53.64
63351;BME280;64988;51.058;17.040;2023-04-01T07:39:26;98399.66;;;18.01;53.34
63351;BME280;64988;51.058;17.040;2023-04-01T07:57:12;98404.75;;;18.49;51.80
63351;BME280;64988;51.058;17.040;2023-04-01T08:03:17;98430.44;;;18.85;51.30
63351;BME280;64988;51.058;17.040;2023-04-01T08:09:06;98427.38;;;18.69;50.52
63351;BME280;64988;51.058;17.040;2023-04-01T08:21:00;98433.75;;;19.81;48.37
63351;BME280;64988;51.058;17.040;2023-04-01T08:26:39;98439.72;;;19.72;48.20
63351;BME280;64988;51.058;17.040;2023-04-01T08:32:22;98438.63;;;20.22;47.48
63351;BME280;64988;51.058;17.040;2023-04-01T08:37:53;98435.13;;;20.52;46.63
63351;BME280;64988;51.058;17.040;2023-04-01T08:43:54;98446.75;;;20.83;45.73
63351;BME280;64988;51.058;17.040;2023-04-01T08:50:01;98440.84;;;20.98;44.91
63351;BME280;64988;51.058;17.040;2023-04-01T08:56:14;98437.22;;;21.69;43.55
63351;BME280;64988;51.058;17.040;2023-04-01T09:43:43;98470.72;;;22.35;40.68
63351;BME280;64988;51.058;17.040;2023-04-01T09:49:30;98471.44;;;22.31;40.33
63351;BME280;64988;51.058;17.040;2023-04-01T10:19:07;98471.31;;;25.49;34.26
63351;BME280;64988;51.058;17.040;2023-04-01T11:06:33;98506.91;;;19.99;48.11
63351;BME280;64988;51.058;17.040;2023-04-01T11:12:27;98510.16;;;18.82;51.36
63351;BME280;64988;51.058;17.040;2023-04-01T11:31:17;98505.38;;;19.54;48.67
63351;BME280;64988;51.058;17.040;2023-04-01T11:49:33;98519.59;;;21.27;45.12
63351;BME280;64988;51.058;17.040;2023-04-01T12:07:19;98542.94;;;20.21;44.23
63351;BME280;64988;51.058;17.040;2023-04-01T12:13:12;98543.44;;;19.55;48.21
63351;BME280;64988;51.058;17.040;2023-04-01T12:19:09;98546.03;;;18.35;52.72
63351;BME280;64988;51.058;17.040;2023-04-01T12:24:46;98541.59;;;18.27;53.55
63351;BME280;64988;51.058;17.040;2023-04-01T12:30:35;98549.28;;;19.27;49.90
63351;BME280;64988;51.058;17.040;2023-04-01T12:48:13;98550.31;;;22.30;43.51
63351;BME280;64988;51.058;17.040;2023-04-01T13:25:15;98592.84;;;20.23;47.91
63351;BME280;64988;51.058;17.040;2023-04-01T13:30:35;98599.09;;;19.80;48.34
63351;BME280;64988;51.058;17.040;2023-04-01T13:36:34;98604.53;;;19.49;49.33
63351;BME280;64988;51.058;17.040;2023-04-01T13:42:15;98605.66;;;19.35;50.29
63351;BME280;64988;51.058;17.040;2023-04-01T14:00:10;98613.03;;;18.70;49.85
63351;BME280;64988;51.058;17.040;2023-04-01T14:23:39;98615.22;;;17.49;53.77
63351;BME280;64988;51.058;17.040;2023-04-01T14:35:30;98619.47;;;17.64;53.34
63351;BME280;64988;51.058;17.040;2023-04-01T14:41:11;98624.75;;;17.66;52.80
63351;BME280;64988;51.058;17.040;2023-04-01T14:47:09;98622.84;;;17.60;53.46
63351;BME280;64988;51.058;17.040;2023-04-01T14:52:55;98621.09;;;17.46;53.97
63351;BME280;64988;51.058;17.040;2023-04-01T14:58:49;98635.69;;;17.72;53.35
63351;BME280;64988;51.058;17.040;2023-04-01T15:21:41;98646.44;;;18.46;53.19
63351;BME280;64988;51.058;17.040;2023-04-01T15:39:44;98662.16;;;17.92;55.20
63351;BME280;64988;51.058;17.040;2023-04-01T15:50:32;98672.28;;;17.44;56.35
63351;BME280;64988;51.058;17.040;2023-04-01T15:56:41;98675.03;;;17.50;55.93
63351;BME280;64988;51.058;17.040;2023-04-01T16:08:08;98696.19;;;17.01;55.78
63351;BME280;64988;51.058;17.040;2023-04-01T16:13:53;98703.38;;;16.80;55.17
63351;BME280;64988;51.058;17.040;2023-04-01T16:19:51;98706.75;;;17.17;55.10
63351;BME280;64988;51.058;17.040;2023-04-01T16:25:44;98712.84;;;17.19;54.62
63351;BME280;64988;51.058;17.040;2023-04-01T16:31:25;98728.06;;;17.35;54.56
63351;BME280;64988;51.058;17.040;2023-04-01T16:37:13;98724.63;;;17.26;54.73
63351;BME280;64988;51.058;17.040;2023-04-01T16:42:56;98724.06;;;16.96;55.52
63351;BME280;64988;51.058;17.040;2023-04-01T16:48:58;98738.97;;;16.72;55.79
63351;BME280;64988;51.058;17.040;2023-04-01T16:54:39;98751.25;;;16.41;56.65
63351;BME280;64988;51.058;17.040;2023-04-01T17:06:31;98772.63;;;16.44;57.04
63351;BME280;64988;51.058;17.040;2023-04-01T17:12:28;98775.16;;;16.45;56.71
63351;BME280;64988;51.058;17.040;2023-04-01T17:41:25;98821.47;;;16.09;58.92
63351;BME280;64988;51.058;17.040;2023-04-01T17:47:17;98817.38;;;15.99;59.44
63351;BME280;64988;51.058;17.040;2023-04-01T17:58:21;98849.19;;;15.98;59.64
63351;BME280;64988;51.058;17.040;2023-04-01T18:04:10;98851.41;;;16.09;59.08
63351;BME280;64988;51.058;17.040;2023-04-01T18:27:04;98880.06;;;15.09;61.69
63351;BME280;64988;51.058;17.040;2023-04-01T18:32:35;98894.25;;;14.82;62.43
63351;BME280;64988;51.058;17.040;2023-04-01T18:38:12;98903.38;;;14.89;62.50
63351;BME280;64988;51.058;17.040;2023-04-01T18:49:33;98917.09;;;14.42;64.31
63351;BME280;64988;51.058;17.040;2023-04-01T19:00:55;98930.88;;;14.63;63.04
63351;BME280;64988;51.058;17.040;2023-04-01T19:06:53;98931.06;;;14.62;63.21
63351;BME280;64988;51.058;17.040;2023-04-01T19:18:50;98943.88;;;14.45;61.95
63351;BME280;64988;51.058;17.040;2023-04-01T19:36:54;98966.31;;;14.39;61.96
63351;BME280;64988;51.058;17.040;2023-04-01T19:42:41;98966.63;;;14.05;62.95
63351;BME280;64988;51.058;17.040;2023-04-01T20:00:09;98983.06;;;13.96;65.16
63351;BME280;64988;51.058;17.040;2023-04-01T20:06:00;98990.28;;;13.73;65.25
63351;BME280;64988;51.058;17.040;2023-04-01T20:17:39;99007.47;;;13.96;65.40
63351;BME280;64988;51.058;17.040;2023-04-01T20:40:31;99031.75;;;13.81;65.42
63351;BME280;64988;51.058;17.040;2023-04-01T20:46:20;99029.69;;;13.99;64.97
63351;BME280;64988;51.058;17.040;2023-04-01T20:58:06;99038.56;;;13.61;65.99
63351;BME280;64988;51.058;17.040;2023-04-01T21:03:56;99049.94;;;13.40;65.81
63351;BME280;64988;51.058;17.040;2023-04-01T22:14:00;99109.78;;;12.55;67.24
63351;BME280;64988;51.058;17.040;2023-04-01T22:25:11;99111.22;;;12.75;66.17
63351;BME280;64988;51.058;17.040;2023-04-01T22:31:00;99129.53;;;12.81;66.17
63351;BME280;64988;51.058;17.040;2023-04-01T22:36:55;99131.81;;;12.60;66.15
63351;BME280;64988;51.058;17.040;2023-04-01T22:42:43;99131.63;;;12.53;66.27
63351;BME280;64988;51.058;17.040;2023-04-01T22:59:37;99156.78;;;12.54;65.50
63351;BME280;64988;51.058;17.040;2023-04-01T23:05:12;99164.00;;;12.37;65.78
63351;BME280;64988;51.058;17.040;2023-04-01T23:10:53;99160.97;;;12.40;66.14
63351;BME280;64988;51.058;17.040;2023-04-01T23:16:31;99175.59;;;12.30;65.63
63351;BME280;64988;51.058;17.040;2023-04-01T23:33:43;99194.28;;;11.97;66.20
63351;BME280;64988;51.058;17.040;2023-04-01T23:39:23;99207.13;;;11.78;66.14
63351;BME280;64988;51.058;17.040;2023-04-01T23:44:55;99213.84;;;11.29;65.65
63351;BME280;64988;51.058;17.040;2023-04-01T23:50:24;99217.41;;;11.29;65.89
63351;BME280;64988;51.058;17.040;2023-04-01T23:55:54;99230.13;;;11.19;65.77
